Time;durP1;ratioP1;P1;durP2;ratioP2;P2;SDS_P1;SDS_P2;PMS_P1;PMS_P2;Temp;Humidity;BMP_temperature;BMP_pressure;BME280_temperature;BME280_humidity;BME280_pressure;Samples;Min_cycle;Max_cycle;Signal;HPM_P1;HPM_P2
2024/02/21 00:02:22;;;;;;;1.75;1.13;;;;;;;6.71;100.00;98221.38;5077099;28;20028;-80
2024/02/21 00:04:47;;;;;;;2.30;0.85;;;;;;;6.68;100.00;98218.84;5076993;28;20027;-81
2024/02/21 00:07:13;;;;;;;0.50;0.50;;;;;;;6.62;100.00;98217.25;5076619;28;20065;-80
2024/02/21 00:09:39;;;;;;;0.63;0.63;;;;;;;6.61;100.00;98209.38;5093724;28;20032;-80
2024/02/21 00:12:06;;;;;;;0.40;0.35;;;;;;;6.52;100.00;98207.91;5093429;28;20024;-80
2024/02/21 00:14:32;;;;;;;1.65;1.45;;;;;;;6.53;100.00;98217.59;5111753;28;20483;-80
2024/02/21 00:16:57;;;;;;;0.70;0.70;;;;;;;6.57;100.00;98216.56;5076268;28;20034;-80
2024/02/21 00:19:23;;;;;;;0.65;0.60;;;;;;;6.45;100.00;98203.72;5059528;28;20415;-81
2024/02/21 00:21:49;;;;;;;1.65;0.90;;;;;;;6.40;100.00;98216.28;5076911;28;20038;-81
2024/02/21 00:24:16;;;;;;;0.40;0.40;;;;;;;6.44;100.00;98212.59;5093001;28;20562;-79
2024/02/21 00:26:41;;;;;;;0.50;0.25;;;;;;;6.43;100.00;98216.16;5060213;28;20024;-80
2024/02/21 00:29:07;;;;;;;0.80;0.80;;;;;;;6.41;100.00;98205.63;5093043;28;20024;-79
2024/02/21 00:31:32;;;;;;;0.95;0.95;;;;;;;6.44;100.00;98213.47;5076303;28;20023;-79
2024/02/21 00:34:01;;;;;;;1.13;0.90;;;;;;;6.37;100.00;98203.09;5066771;28;20044;-80
2024/02/21 00:36:26;;;;;;;1.20;0.65;;;;;;;6.35;100.00;98202.28;5068999;28;20032;-80
2024/02/21 00:38:52;;;;;;;4.68;1.27;;;;;;;6.43;100.00;98208.19;5076142;28;20034;-80
2024/02/21 00:41:18;;;;;;;0.90;0.52;;;;;;;6.36;100.00;98201.38;5076002;28;20034;-80
2024/02/21 00:43:43;;;;;;;1.60;0.65;;;;;;;6.36;100.00;98196.06;5076268;28;20091;-80
2024/02/21 00:46:09;;;;;;;0.88;0.85;;;;;;;6.32;100.00;98192.66;5075982;28;20032;-79
2024/02/21 00:48:35;;;;;;;0.28;0.28;;;;;;;6.43;100.00;98194.91;5092546;28;20058;-79
2024/02/21 00:51:01;;;;;;;0.40;0.40;;;;;;;6.31;100.00;98187.38;5059516;28;20024;-80
2024/02/21 00:53:27;;;;;;;2.58;1.15;;;;;;;6.33;100.00;98196.19;5092978;28;20036;-80
2024/02/21 00:55:56;;;;;;;0.75;0.68;;;;;;;6.35;100.00;98181.03;5075973;28;20506;-80
2024/02/21 00:58:22;;;;;;;1.73;1.10;;;;;;;6.50;100.00;98196.44;5076060;28;20041;-80
2024/02/21 01:00:48;;;;;;;0.82;0.82;;;;;;;6.47;100.00;98193.88;5092590;28;20446;-81
2024/02/21 01:03:13;;;;;;;0.47;0.43;;;;;;;6.51;100.00;98192.88;5075084;28;20487;-80
2024/02/21 01:05:39;;;;;;;1.38;0.60;;;;;;;6.51;100.00;98187.56;5092070;28;20019;-80
2024/02/21 01:08:05;;;;;;;2.92;1.08;;;;;;;6.60;100.00;98184.56;5092660;28;20035;-80
2024/02/21 01:10:31;;;;;;;0.43;0.30;;;;;;;6.59;100.00;98174.84;5075495;28;20019;-80
2024/02/21 01:12:57;;;;;;;0.50;0.32;;;;;;;6.57;100.00;98187.34;5075860;28;20024;-80
2024/02/21 01:15:22;;;;;;;0.63;0.63;;;;;;;6.67;100.00;98187.88;5075780;28;20110;-80
2024/02/21 01:17:49;;;;;;;1.90;1.13;;;;;;;6.62;100.00;98174.75;5092294;28;20422;-80
2024/02/21 01:20:34;;;;;;;1.95;1.05;;;;;;;6.68;100.00;98179.84;5075944;28;20460;-80
2024/02/21 01:22:59;;;;;;;1.20;1.05;;;;;;;6.63;100.00;98180.94;5063149;28;20034;-80
2024/02/21 01:25:25;;;;;;;1.65;0.75;;;;;;;6.57;100.00;98168.72;5072719;28;20031;-80
2024/02/21 01:27:51;;;;;;;2.55;0.88;;;;;;;6.59;100.00;98169.53;5075826;28;20036;-81
2024/02/21 01:30:17;;;;;;;0.55;0.55;;;;;;;6.52;100.00;98157.41;5059284;28;20051;-81
2024/02/21 01:32:43;;;;;;;0.60;0.60;;;;;;;6.53;100.00;98156.47;5092885;28;20395;-81
2024/02/21 01:35:09;;;;;;;1.20;1.08;;;;;;;6.57;100.00;98163.41;5092844;28;20031;-80
2024/02/21 01:37:35;;;;;;;0.75;0.73;;;;;;;6.47;100.00;98143.41;5075565;28;20139;-79
2024/02/21 01:40:00;;;;;;;0.52;0.52;;;;;;;6.51;100.00;98151.22;5092617;28;20027;-80
2024/02/21 01:42:26;;;;;;;3.95;1.20;;;;;;;6.48;100.00;98155.78;5075681;28;20105;-80
2024/02/21 01:44:52;;;;;;;0.52;0.52;;;;;;;6.54;100.00;98160.88;5092215;28;20077;-80
2024/02/21 01:47:17;;;;;;;1.48;0.85;;;;;;;6.33;100.00;98159.84;5075685;28;20518;-80
2024/02/21 01:49:43;;;;;;;0.10;0.10;;;;;;;6.30;100.00;98151.13;5075681;28;20027;-80
2024/02/21 01:52:09;;;;;;;2.47;1.00;;;;;;;6.29;100.00;98154.69;5075785;28;20050;-80
2024/02/21 01:54:35;;;;;;;3.13;1.30;;;;;;;6.30;100.00;98156.44;5091776;28;20154;-80
2024/02/21 01:57:01;;;;;;;0.55;0.55;;;;;;;6.26;100.00;98155.66;5075354;28;20102;-80
2024/02/21 01:59:27;;;;;;;1.85;0.55;;;;;;;6.18;100.00;98154.22;5091650;28;20066;-80
2024/02/21 02:01:52;;;;;;;1.77;1.17;;;;;;;6.14;100.00;98161.41;5075273;28;20111;-80
2024/02/21 02:04:20;;;;;;;0.32;0.32;;;;;;;6.08;100.00;98155.44;5075435;28;20019;-80
2024/02/21 02:06:46;;;;;;;2.20;0.82;;;;;;;6.02;100.00;98168.94;5092268;28;20042;-79
2024/02/21 02:09:12;;;;;;;0.65;0.65;;;;;;;5.91;100.00;98154.22;5092323;28;20160;-81
2024/02/21 02:11:37;;;;;;;3.92;1.10;;;;;;;5.87;100.00;98157.91;5075663;28;20027;-80
2024/02/21 02:14:03;;;;;;;0.30;0.30;;;;;;;5.82;100.00;98154.50;5075146;28;20023;-80
2024/02/21 02:16:28;;;;;;;5.07;1.88;;;;;;;5.89;100.00;98177.31;5077444;28;20038;-82
2024/02/21 02:18:54;;;;;;;1.73;1.60;;;;;;;5.88;100.00;98172.03;5078523;28;20032;-82
2024/02/21 02:21:30;;;;;;;1.63;1.38;;;;;;;5.89;100.00;98171.13;5078962;28;20095;-82
2024/02/21 02:23:56;;;;;;;5.60;1.58;;;;;;;5.98;100.00;98181.44;5095779;28;20019;-82
2024/02/21 02:26:22;;;;;;;1.30;1.20;;;;;;;6.04;100.00;98181.22;5078256;28;20023;-82
2024/02/21 02:28:48;;;;;;;0.60;0.60;;;;;;;6.09;100.00;98179.28;5095647;28;20034;-81
2024/02/21 02:31:13;;;;;;;2.40;1.92;;;;;;;6.10;100.00;98170.41;5078603;28;20032;-82
2024/02/21 02:33:44;;;;;;;0.82;0.80;;;;;;;6.17;100.00;98173.72;5095935;28;20271;-83
2024/02/21 02:36:10;;;;;;;2.22;1.85;;;;;;;6.20;100.00;98178.91;5067945;28;20090;-82
2024/02/21 02:38:37;;;;;;;1.60;1.25;;;;;;;6.19;100.00;98174.50;5091371;28;20044;-82
2024/02/21 02:41:02;;;;;;;11.38;2.72;;;;;;;6.17;100.00;98169.28;5094215;28;20165;-82
2024/02/21 02:43:28;;;;;;;0.73;0.73;;;;;;;6.23;100.00;98170.84;5078073;28;20545;-81
2024/02/21 02:45:55;;;;;;;2.00;0.73;;;;;;;6.21;100.00;98170.91;5061169;28;20536;-82
2024/02/21 02:48:21;;;;;;;6.40;1.23;;;;;;;6.22;100.00;98179.72;5078371;28;20038;-81
2024/02/21 02:50:46;;;;;;;2.28;1.65;;;;;;;6.09;100.00;98163.34;5078430;28;20439;-81
2024/02/21 02:53:12;;;;;;;3.00;1.17;;;;;;;6.07;100.00;98173.16;5078211;28;20490;-81
2024/02/21 02:55:38;;;;;;;8.00;2.53;;;;;;;5.98;100.00;98166.38;5095326;28;20048;-82
2024/02/21 02:58:04;;;;;;;0.68;0.68;;;;;;;6.07;100.00;98175.81;5077635;28;20027;-82
2024/02/21 03:00:31;;;;;;;2.45;1.95;;;;;;;6.15;100.00;98168.47;5078438;28;20032;-81
2024/02/21 03:02:56;;;;;;;3.00;1.95;;;;;;;6.22;100.00;98169.09;5078192;28;20110;-81
2024/02/21 03:05:22;;;;;;;1.90;1.75;;;;;;;6.23;100.00;98157.56;5078387;28;20406;-82
2024/02/21 03:07:51;;;;;;;1.60;1.25;;;;;;;6.09;100.00;98151.88;5078159;28;20526;-81
2024/02/21 03:10:18;;;;;;;1.75;1.25;;;;;;;6.14;100.00;98152.56;5095694;28;20024;-83
2024/02/21 03:12:43;;;;;;;0.88;0.88;;;;;;;6.24;100.00;98157.53;5078145;28;20035;-82
2024/02/21 03:15:09;;;;;;;0.80;0.68;;;;;;;6.29;100.00;98163.53;5077927;28;20039;-82
2024/02/21 03:17:35;;;;;;;1.20;1.17;;;;;;;6.24;100.00;98159.31;5077419;28;20088;-82
2024/02/21 03:20:04;;;;;;;3.33;2.33;;;;;;;6.12;100.00;98162.41;5095109;28;20027;-82
2024/02/21 03:22:31;;;;;;;1.70;1.35;;;;;;;6.18;100.00;98164.84;5078920;28;20486;-81
2024/02/21 03:24:57;;;;;;;1.73;1.52;;;;;;;6.19;100.00;98163.91;5077172;28;20070;-81
2024/02/21 03:27:23;;;;;;;1.45;1.35;;;;;;;6.23;100.00;98176.16;5076461;28;20066;-82
2024/02/21 03:29:48;;;;;;;1.88;1.50;;;;;;;6.20;100.00;98170.94;5094417;28;20087;-82
2024/02/21 03:32:16;;;;;;;1.80;1.33;;;;;;;6.09;100.00;98163.34;5077843;28;20032;-83
2024/02/21 03:34:42;;;;;;;1.95;1.60;;;;;;;6.08;100.00;98155.44;5072229;28;20581;-82
2024/02/21 03:37:07;;;;;;;5.55;1.00;;;;;;;6.17;100.00;98171.06;5076712;28;20122;-82
2024/02/21 03:39:33;;;;;;;1.23;1.13;;;;;;;6.22;100.00;98182.38;5077422;28;20411;-83
2024/02/21 03:42:04;;;;;;;1.95;1.42;;;;;;;6.11;100.00;98166.81;5076889;28;20479;-81
2024/02/21 03:44:33;;;;;;;3.20;1.10;;;;;;;6.20;100.00;98177.13;5079051;28;20103;-83
2024/02/21 03:47:00;;;;;;;1.90;1.40;;;;;;;6.13;100.00;98158.78;5077385;28;20055;-82
2024/02/21 03:49:26;;;;;;;0.40;0.40;;;;;;;6.14;100.00;98171.16;5076978;28;20471;-83
2024/02/21 03:51:52;;;;;;;7.22;1.95;;;;;;;6.26;100.00;98190.19;5077136;28;20380;-82
2024/02/21 03:54:18;;;;;;;5.45;2.53;;;;;;;6.24;100.00;98189.41;5076582;28;20035;-82
2024/02/21 03:56:48;;;;;;;2.38;1.23;;;;;;;6.19;100.00;98174.50;5094049;28;20031;-82
2024/02/21 03:59:14;;;;;;;1.45;1.35;;;;;;;6.13;100.00;98185.34;5077013;28;20171;-81
2024/02/21 04:01:40;;;;;;;2.08;0.95;;;;;;;6.14;100.00;98187.09;5076586;28;20535;-82
2024/02/21 04:04:05;;;;;;;1.25;1.10;;;;;;;6.26;100.00;98186.69;5093875;28;20029;-82
2024/02/21 04:06:31;;;;;;;0.90;0.60;;;;;;;6.29;100.00;98186.56;5093543;28;20023;-81
2024/02/21 04:09:03;;;;;;;3.53;1.58;;;;;;;6.26;100.00;98187.53;5093814;28;20027;-82
2024/02/21 04:11:33;;;;;;;4.15;3.13;;;;;;;6.25;100.00;98182.28;5077109;28;20055;-82
2024/02/21 04:13:59;;;;;;;29.17;5.07;;;;;;;6.29;100.00;98198.06;5076221;28;20032;-82
2024/02/21 04:16:24;;;;;;;15.07;4.45;;;;;;;6.20;100.00;98181.56;5076895;28;20426;-82
2024/02/21 04:18:56;;;;;;;2.33;2.08;;;;;;;6.21;100.00;98197.47;5071191;28;20038;-82
2024/02/21 04:21:24;;;;;;;11.10;4.87;;;;;;;6.05;100.00;98164.38;5077028;28;20035;-83
2024/02/21 04:24:07;;;;;;;13.73;6.53;;;;;;;6.02;100.00;98164.50;5092899;28;20280;-82
2024/02/21 04:26:35;;;;;;;6.50;4.40;;;;;;;6.09;100.00;98173.13;5077369;28;20024;-82
2024/02/21 04:29:01;;;;;;;3.97;2.05;;;;;;;5.93;100.00;98156.84;5093884;28;20031;-82
2024/02/21 04:31:32;;;;;;;2.25;2.05;;;;;;;5.88;100.00;98172.03;5076505;28;20027;-83
2024/02/21 04:33:57;;;;;;;4.32;2.50;;;;;;;6.02;100.00;98196.34;5072785;28;20480;-82
2024/02/21 04:36:23;;;;;;;2.10;1.67;;;;;;;6.10;100.00;98198.72;5090862;28;20035;-73
2024/02/21 04:38:50;;;;;;;3.35;1.95;;;;;;;6.06;100.00;98199.78;5093014;28;20502;-74
2024/02/21 04:41:16;;;;;;;3.25;2.35;;;;;;;6.07;100.00;98204.16;5093102;28;20027;-73
2024/02/21 04:43:41;;;;;;;1.38;1.27;;;;;;;5.99;100.00;98205.28;5092879;28;20418;-72
2024/02/21 04:46:07;;;;;;;6.25;1.77;;;;;;;5.97;100.00;98191.19;5111178;28;20142;-72
2024/02/21 04:48:34;;;;;;;3.03;2.78;;;;;;;6.07;100.00;98193.53;5093172;28;20540;-73
2024/02/21 04:50:59;;;;;;;2.92;2.20;;;;;;;6.07;100.00;98182.91;5093093;28;20067;-73
2024/02/21 04:53:25;;;;;;;1.98;1.88;;;;;;;6.09;100.00;98195.22;5075892;28;20035;-73
2024/02/21 04:55:51;;;;;;;2.65;1.77;;;;;;;6.09;100.00;98194.38;5059324;28;20454;-85
2024/02/21 04:58:16;;;;;;;5.15;2.50;;;;;;;6.09;100.00;98183.75;5076042;28;20106;-83
2024/02/21 05:00:43;;;;;;;3.33;2.00;;;;;;;5.93;100.00;98184.25;5092810;28;20030;-82
2024/02/21 05:03:08;;;;;;;2.33;2.13;;;;;;;5.92;100.00;98182.50;5076534;28;20042;-83
2024/02/21 05:05:34;;;;;;;5.70;3.80;;;;;;;5.97;100.00;98185.00;5075712;28;20035;-82
2024/02/21 05:07:59;;;;;;;4.70;3.40;;;;;;;5.90;100.00;98189.66;5076035;28;20514;-83
2024/02/21 05:10:30;;;;;;;1.60;1.35;;;;;;;5.87;100.00;98192.44;5092967;28;20063;-83
2024/02/21 05:12:57;;;;;;;5.10;2.60;;;;;;;5.83;100.00;98185.44;5077080;28;20422;-83
2024/02/21 05:15:23;;;;;;;2.90;2.40;;;;;;;5.89;100.00;98193.22;5085917;28;20047;-85
2024/02/21 05:17:48;;;;;;;3.63;2.45;;;;;;;5.86;100.00;98187.16;5074054;28;20027;-83
2024/02/21 05:20:32;;;;;;;7.80;2.63;;;;;;;5.91;100.00;98190.50;5074147;28;20481;-84
2024/02/21 05:23:17;;;;;;;4.72;2.83;;;;;;;5.81;100.00;98189.94;5087664;28;20484;-83
2024/02/21 05:25:43;;;;;;;7.25;3.40;;;;;;;5.85;100.00;98199.56;5109426;28;20058;-85
2024/02/21 05:28:08;;;;;;;2.47;1.83;;;;;;;5.81;100.00;98189.06;5094830;28;20106;-84
2024/02/21 05:30:34;;;;;;;8.77;3.85;;;;;;;5.88;100.00;98196.78;5075449;28;20060;-86
2024/02/21 05:33:06;;;;;;;3.35;3.10;;;;;;;5.84;100.00;98200.47;5092805;28;20080;-84
2024/02/21 05:35:32;;;;;;;2.10;1.95;;;;;;;5.76;100.00;98212.22;5076167;28;20483;-82
2024/02/21 05:37:57;;;;;;;2.38;2.17;;;;;;;5.65;100.00;98204.63;5078480;28;20031;-84
2024/02/21 05:40:23;;;;;;;4.75;2.22;;;;;;;5.70;100.00;98202.66;5109044;28;20036;-83
2024/02/21 05:42:51;;;;;;;18.05;3.30;;;;;;;5.69;100.00;98214.19;5075466;28;20138;-82
2024/02/21 05:45:16;;;;;;;4.22;2.85;;;;;;;5.67;100.00;98204.56;5075596;28;20031;-81
2024/02/21 05:47:42;;;;;;;4.28;2.85;;;;;;;5.67;100.00;98210.72;5075270;28;20050;-84
2024/02/21 05:50:08;;;;;;;4.32;3.28;;;;;;;5.66;100.00;98201.03;5075450;28;20031;-81
2024/02/21 05:52:34;;;;;;;4.85;2.80;;;;;;;5.72;100.00;98214.09;5113181;28;20028;-83
2024/02/21 05:54:59;;;;;;;4.97;3.05;;;;;;;5.74;100.00;98209.63;5079060;28;20171;-83
2024/02/21 05:57:25;;;;;;;5.97;2.72;;;;;;;5.72;100.00;98210.59;5078990;28;20142;-84
2024/02/21 05:59:51;;;;;;;5.30;3.05;;;;;;;5.76;100.00;98213.09;5095655;28;20030;-84
2024/02/21 06:02:16;;;;;;;7.55;3.72;;;;;;;5.80;100.00;98204.13;5079521;28;20033;-84
2024/02/21 06:04:46;;;;;;;5.15;2.80;;;;;;;5.94;100.00;98212.53;5078725;28;20024;-82
2024/02/21 06:07:12;;;;;;;4.45;2.28;;;;;;;6.06;100.00;98221.88;5096937;28;20024;-83
2024/02/21 06:09:37;;;;;;;4.28;1.90;;;;;;;6.09;100.00;98212.94;5095560;28;20499;-82
2024/02/21 06:12:03;;;;;;;2.20;1.90;;;;;;;6.15;100.00;98213.63;5078686;28;20027;-84
2024/02/21 06:14:29;;;;;;;3.80;2.25;;;;;;;6.20;100.00;98221.41;5078982;28;20503;-84
2024/02/21 06:16:54;;;;;;;0.98;0.98;;;;;;;6.10;100.00;98210.22;5078761;28;20024;-83
2024/02/21 06:19:20;;;;;;;5.07;3.10;;;;;;;6.33;100.00;98226.28;5078647;28;20041;-84
2024/02/21 06:21:45;;;;;;;5.32;3.72;;;;;;;6.39;100.00;98230.50;5095100;28;20156;-84
2024/02/21 06:24:12;;;;;;;2.65;1.90;;;;;;;6.50;100.00;98233.66;5078433;28;20032;-83
2024/02/21 06:26:40;;;;;;;9.13;3.85;;;;;;;6.54;100.00;98236.16;5079092;28;20114;-82
2024/02/21 06:29:06;;;;;;;3.65;2.65;;;;;;;6.74;100.00;98238.09;5095349;28;20038;-83
2024/02/21 06:31:31;;;;;;;7.97;2.38;;;;;;;6.77;100.00;98237.09;5095213;28;20032;-84
2024/02/21 06:33:57;;;;;;;5.38;2.83;;;;;;;6.85;100.00;98245.69;5095622;28;20502;-83
2024/02/21 06:36:23;;;;;;;5.35;2.15;;;;;;;6.96;100.00;98240.84;5078649;28;20027;-84
2024/02/21 06:38:48;;;;;;;12.32;4.45;;;;;;;7.02;100.00;98227.31;5095534;28;20513;-83
2024/02/21 06:41:18;;;;;;;5.57;2.10;;;;;;;7.15;100.00;98233.06;5077873;28;20096;-82
2024/02/21 06:43:47;;;;;;;2.67;1.75;;;;;;;7.29;100.00;98226.28;5095610;28;20402;-83
2024/02/21 06:46:26;;;;;;;9.70;6.18;;;;;;;7.44;100.00;98231.06;5078186;28;20131;-82
2024/02/21 06:48:51;;;;;;;6.35;4.18;;;;;;;7.46;100.00;98228.31;5094695;28;20376;-82
2024/02/21 06:51:17;;;;;;;3.03;2.70;;;;;;;7.70;100.00;98238.00;5078341;28;20035;-82
2024/02/21 06:53:43;;;;;;;8.10;3.80;;;;;;;7.91;100.00;98239.81;5095430;28;20220;-84
2024/02/21 06:56:10;;;;;;;9.98;3.20;;;;;;;8.02;100.00;98232.28;5078114;28;20054;-84
2024/02/21 06:58:36;;;;;;;2.45;2.15;;;;;;;8.19;100.00;98235.09;5094930;28;20129;-84
2024/02/21 07:01:03;;;;;;;7.55;3.78;;;;;;;8.23;100.00;98229.63;5094499;28;20028;-83
2024/02/21 07:03:28;;;;;;;3.47;2.95;;;;;;;8.35;100.00;98219.38;5076806;28;20050;-83
2024/02/21 07:05:54;;;;;;;3.85;2.83;;;;;;;8.39;100.00;98214.78;5077800;28;20028;-82
2024/02/21 07:08:20;;;;;;;7.70;3.63;;;;;;;8.24;100.00;98223.38;5094529;28;20126;-84
2024/02/21 07:10:45;;;;;;;4.13;2.35;;;;;;;8.53;100.00;98225.69;5095125;28;20020;-84
2024/02/21 07:13:11;;;;;;;4.45;2.80;;;;;;;8.69;100.00;98224.13;5077321;28;20035;-83
2024/02/21 07:15:37;;;;;;;4.38;2.33;;;;;;;8.86;100.00;98223.38;5078001;28;20049;-83
2024/02/21 07:18:03;;;;;;;3.80;2.17;;;;;;;8.95;100.00;98214.97;5094499;28;20020;-83
2024/02/21 07:20:29;;;;;;;10.00;4.45;;;;;;;9.12;100.00;98213.28;5094355;28;20627;-83
2024/02/21 07:22:55;;;;;;;8.45;5.35;;;;;;;9.23;100.00;98208.28;5077604;28;20031;-84
2024/02/21 07:25:20;;;;;;;8.23;5.40;;;;;;;9.36;100.00;98215.75;5077469;28;20090;-84
2024/02/21 07:27:46;;;;;;;5.80;3.85;;;;;;;8.91;100.00;98213.38;5077845;28;20027;-84
2024/02/21 07:30:12;;;;;;;5.78;4.07;;;;;;;8.76;100.00;98225.59;5077104;28;20047;-82
2024/02/21 07:32:38;;;;;;;7.53;4.85;;;;;;;8.91;100.00;98224.03;5077240;28;20035;-83
2024/02/21 07:35:10;;;;;;;7.53;3.88;;;;;;;9.34;100.00;98228.31;5077092;28;20110;-80
2024/02/21 07:37:36;;;;;;;;;;;;;;;9.56;100.00;98226.38;5078182;28;20111;-81
2024/02/21 07:40:02;;;;;;;4.30;3.53;;;;;;;9.45;100.00;98224.19;5077416;28;20009;-83
2024/02/21 07:42:28;;;;;;;8.98;4.07;;;;;;;9.44;100.00;98210.94;5093938;28;20030;-84
2024/02/21 07:44:53;;;;;;;3.30;2.97;;;;;;;9.49;100.00;98209.78;5077445;28;20024;-83
2024/02/21 07:47:19;;;;;;;6.68;3.53;;;;;;;9.49;100.00;98216.91;5076922;28;20437;-84
2024/02/21 07:49:45;;;;;;;13.98;4.55;;;;;;;9.49;100.00;98214.22;5077761;28;20407;-84
2024/02/21 07:52:11;;;;;;;3.40;2.70;;;;;;;9.49;100.00;98208.91;5093992;28;20110;-85
2024/02/21 07:54:37;;;;;;;9.57;6.07;;;;;;;9.62;100.00;98208.25;5086899;28;20492;-83
2024/02/21 07:57:03;;;;;;;3.88;2.72;;;;;;;10.06;100.00;98206.09;5076935;28;20114;-84
2024/02/21 07:59:30;;;;;;;4.85;3.42;;;;;;;10.13;100.00;98199.53;5091974;28;20055;-84
2024/02/21 08:02:00;;;;;;;7.78;3.97;;;;;;;10.57;100.00;98199.97;5094902;28;20027;-83
2024/02/21 08:04:25;;;;;;;3.63;2.67;;;;;;;11.15;100.00;98189.72;5076181;28;20031;-84
2024/02/21 08:06:53;;;;;;;7.95;4.10;;;;;;;11.52;100.00;98187.72;5076424;28;20034;-84
2024/02/21 08:09:22;;;;;;;5.53;3.05;;;;;;;11.59;100.00;98178.41;5075643;28;20106;-83
2024/02/21 08:11:49;;;;;;;2.72;2.03;;;;;;;11.28;100.00;98176.53;5093444;28;20035;-84
2024/02/21 08:14:16;;;;;;;8.23;4.20;;;;;;;10.79;100.00;98189.88;5075663;28;20394;-84
2024/02/21 08:16:42;;;;;;;6.28;4.70;;;;;;;10.83;100.00;98183.41;5076817;28;20513;-83
2024/02/21 08:19:08;;;;;;;6.35;4.15;;;;;;;11.05;100.00;98193.84;5076179;28;20031;-83
2024/02/21 08:21:33;;;;;;;3.13;2.67;;;;;;;11.06;100.00;98190.22;5074272;28;20031;-84
2024/02/21 08:23:59;;;;;;;7.97;4.18;;;;;;;11.23;100.00;98190.16;5093241;28;20092;-83
2024/02/21 08:26:28;;;;;;;10.80;3.47;;;;;;;11.82;100.00;98191.38;5076241;28;20042;-84
2024/02/21 08:28:53;;;;;;;5.47;4.00;;;;;;;12.27;100.00;98186.09;5076843;28;20061;-83
2024/02/21 08:31:24;;;;;;;38.80;22.60;;;;;;;12.29;100.00;98184.16;5075745;28;20104;-83
2024/02/21 08:33:50;;;;;;;37.45;20.27;;;;;;;12.25;100.00;98179.91;5093501;28;20055;-83
2024/02/21 08:36:21;;;;;;;40.17;21.20;;;;;;;12.62;100.00;98172.38;5076370;28;20085;-83
2024/02/21 08:38:47;;;;;;;35.28;19.63;;;;;;;13.69;100.00;98162.09;5069613;28;20483;-84
2024/02/21 08:41:13;;;;;;;35.28;20.17;;;;;;;13.05;100.00;98160.75;5076206;28;20035;-82
2024/02/21 08:43:38;;;;;;;39.00;21.73;;;;;;;13.19;100.00;98157.25;5075816;28;20024;-84
2024/02/21 08:46:05;;;;;;;23.67;14.38;;;;;;;13.64;100.00;98153.44;5093059;28;20027;-84
2024/02/21 08:48:30;;;;;;;25.85;14.27;;;;;;;14.07;100.00;98152.38;5075978;28;20031;-85
2024/02/21 08:50:56;;;;;;;23.48;13.00;;;;;;;14.52;100.00;98159.19;5080725;28;20076;-84
2024/02/21 08:53:22;;;;;;;23.83;13.68;;;;;;;14.06;100.00;98147.94;5073749;28;20152;-82
2024/02/21 08:55:53;;;;;;;26.52;13.65;;;;;;;16.26;100.00;98142.09;5078121;28;20174;-83
2024/02/21 08:58:19;;;;;;;21.25;12.38;;;;;;;18.10;88.38;98127.47;5076318;28;20083;-84
2024/02/21 09:00:44;;;;;;;19.35;11.93;;;;;;;17.87;83.55;98115.84;5076274;28;20110;-83
2024/02/21 09:03:10;;;;;;;27.73;15.85;;;;;;;17.87;86.63;98130.22;5093268;28;20032;-83
2024/02/21 09:05:36;;;;;;;20.45;11.98;;;;;;;18.20;82.92;98120.28;5076203;28;20042;-82
2024/02/21 09:08:01;;;;;;;21.27;11.98;;;;;;;19.17;72.85;98103.78;5082259;28;20173;-83
2024/02/21 09:10:27;;;;;;;24.00;12.05;;;;;;;19.21;72.77;98102.53;5075779;28;20023;-84
2024/02/21 09:12:52;;;;;;;18.02;10.88;;;;;;;19.43;67.44;98096.94;5093596;28;20107;-84
2024/02/21 09:15:20;;;;;;;19.85;11.55;;;;;;;20.19;62.81;98092.72;5076305;28;20020;-83
2024/02/21 09:17:46;;;;;;;16.40;10.40;;;;;;;20.72;62.13;98083.19;5079492;28;20038;-81
2024/02/21 09:20:12;;;;;;;19.80;10.13;;;;;;;20.78;57.53;98089.88;5072277;28;20140;-82
2024/02/21 09:22:39;;;;;;;25.80;10.50;;;;;;;21.28;57.32;98083.22;5072783;28;20020;-80
2024/02/21 09:25:06;;;;;;;21.52;8.70;;;;;;;22.00;53.28;98069.69;5093477;28;20467;-82
2024/02/21 09:27:32;;;;;;;15.70;9.43;;;;;;;21.33;52.87;98080.03;5096860;28;20054;-81
2024/02/21 09:30:01;;;;;;;18.00;8.30;;;;;;;20.65;53.47;98073.88;5092568;28;20027;-81
2024/02/21 09:32:27;;;;;;;12.05;6.60;;;;;;;21.39;50.21;98072.13;5096398;28;20421;-81
2024/02/21 09:34:54;;;;;;;11.35;6.80;;;;;;;22.53;48.62;98057.94;5096618;28;20084;-81
2024/02/21 09:37:20;;;;;;;10.52;6.18;;;;;;;23.43;45.10;98060.38;5079680;28;20027;-81
2024/02/21 09:39:47;;;;;;;6.20;4.72;;;;;;;23.52;40.49;98038.41;5096788;28;20035;-81
2024/02/21 09:42:14;;;;;;;29.65;20.83;;;;;;;23.13;40.95;98043.44;5079467;28;20039;-81
2024/02/21 09:44:40;;;;;;;6.68;4.35;;;;;;;23.61;39.60;98028.34;5079599;28;20384;-81
2024/02/21 09:47:22;;;;;;;8.23;5.43;;;;;;;24.39;39.77;98037.13;5079510;28;20099;-81
2024/02/21 09:49:49;;;;;;;13.57;6.00;;;;;;;24.86;38.46;98035.44;5096756;28;20016;-82
2024/02/21 09:52:15;;;;;;;10.90;5.22;;;;;;;24.23;37.15;98019.69;5096495;28;20104;-82
2024/02/21 09:54:44;;;;;;;6.75;4.85;;;;;;;22.70;39.68;98035.31;5096543;28;20044;-81
2024/02/21 09:57:11;;;;;;;7.38;4.38;;;;;;;23.02;40.78;98035.53;5080876;28;20056;-80
2024/02/21 09:59:37;;;;;;;10.77;4.95;;;;;;;22.94;40.06;98035.47;5097186;28;20080;-81
2024/02/21 10:02:04;;;;;;;16.20;5.70;;;;;;;22.92;40.09;98028.44;5097767;28;20096;-81
2024/02/21 10:04:30;;;;;;;8.75;4.65;;;;;;;20.75;43.07;98035.78;5115853;28;20028;-81
2024/02/21 10:06:56;;;;;;;8.77;4.65;;;;;;;20.69;44.16;98041.81;5080333;28;20024;-81
2024/02/21 10:09:28;;;;;;;7.35;4.57;;;;;;;22.07;40.83;98032.66;5098195;28;20027;-80
2024/02/21 10:11:54;;;;;;;;;;;;;;;23.30;39.53;98036.19;5082451;28;20024;-80
2024/02/21 10:14:20;;;;;;;5.97;4.45;;;;;;;23.42;39.29;98025.88;5082718;28;20002;-80
2024/02/21 10:16:56;;;;;;;20.13;6.05;;;;;;;23.12;40.54;98025.38;5084324;28;20030;-82
2024/02/21 10:19:21;;;;;;;8.57;5.07;;;;;;;22.40;39.79;98022.03;5105118;28;20123;-81
2024/02/21 10:22:08;;;;;;;5.95;3.90;;;;;;;21.43;39.70;98001.91;5087504;28;20015;-81
2024/02/21 10:24:34;;;;;;;5.75;4.10;;;;;;;20.65;39.67;98000.47;5087328;28;20027;-81
2024/02/21 10:27:04;;;;;;;6.70;4.30;;;;;;;20.46;41.48;98014.06;5103599;28;20019;-81
2024/02/21 10:29:31;;;;;;;6.43;4.60;;;;;;;20.45;41.72;97996.94;5104025;28;20487;-81
2024/02/21 10:32:10;;;;;;;6.40;4.22;;;;;;;19.82;43.31;98016.47;5104651;28;20069;-80
2024/02/21 10:34:38;;;;;;;7.03;4.70;;;;;;;18.69;43.87;98008.63;5110909;28;20032;-80
2024/02/21 10:37:05;;;;;;;8.05;5.63;;;;;;;17.62;46.21;98024.13;5115413;28;20091;-81
2024/02/21 10:39:37;;;;;;;7.63;5.00;;;;;;;16.76;48.80;98026.63;5104532;28;20034;-81
2024/02/21 10:42:03;;;;;;;7.38;4.60;;;;;;;16.56;50.16;98022.78;5107612;28;20028;-79
2024/02/21 10:44:33;;;;;;;8.52;5.95;;;;;;;16.57;55.24;98040.72;5108455;28;20027;-80
2024/02/21 10:47:08;;;;;;;10.52;6.32;;;;;;;16.99;53.30;98027.47;5090264;28;20555;-80
2024/02/21 10:49:39;;;;;;;12.48;6.28;;;;;;;17.48;50.01;98013.53;5109005;28;20015;-80
2024/02/21 10:52:15;;;;;;;9.23;4.70;;;;;;;17.39;48.44;98007.03;5107698;28;20028;-80
2024/02/21 10:55:09;;;;;;;6.10;4.30;;;;;;;17.34;49.18;98009.28;5106357;28;20079;-81
2024/02/21 10:57:37;;;;;;;7.65;5.15;;;;;;;17.19;48.00;97997.00;5127555;28;20023;-80
2024/02/21 11:00:07;;;;;;;8.07;4.70;;;;;;;17.12;47.52;97990.38;5105983;28;20494;-79
2024/02/21 11:02:34;;;;;;;5.95;4.20;;;;;;;17.33;47.77;97988.63;5107648;28;20051;-80
2024/02/21 11:05:00;;;;;;;5.20;3.50;;;;;;;17.83;46.17;97976.31;5090160;28;20086;-81
2024/02/21 11:07:26;;;;;;;6.68;3.80;;;;;;;17.97;46.05;97975.13;5087194;28;20541;-80
2024/02/21 11:09:52;;;;;;;4.95;3.47;;;;;;;17.97;45.89;97969.72;5102694;28;20024;-77
2024/02/21 11:12:20;;;;;;;7.38;4.65;;;;;;;18.31;47.14;97973.97;5080085;28;20020;-80
2024/02/21 11:14:46;;;;;;;5.78;4.00;;;;;;;19.11;46.19;97968.72;5100652;28;20019;-80
2024/02/21 11:17:19;;;;;;;8.38;4.40;;;;;;;20.69;42.95;97952.94;5100084;28;20133;-81
2024/02/21 11:19:45;;;;;;;4.30;3.10;;;;;;;20.69;41.82;97936.63;5105336;28;20114;-84
2024/02/21 11:22:18;;;;;;;4.40;3.00;;;;;;;20.52;40.52;97946.41;5088660;28;20157;-81
2024/02/21 11:24:43;;;;;;;3.83;2.70;;;;;;;21.59;37.95;97931.34;5107475;28;20038;-80
2024/02/21 11:27:16;;;;;;;4.05;2.78;;;;;;;23.07;36.25;97923.16;5111915;28;20047;-82
2024/02/21 11:29:45;;;;;;;2.75;2.30;;;;;;;23.69;34.43;97895.38;5110029;28;20026;-83
2024/02/21 11:32:14;;;;;;;4.32;2.70;;;;;;;24.14;34.46;97891.34;5110248;28;20058;-81